Time;durP1;ratioP1;P1;durP2;ratioP2;P2;SDS_P1;SDS_P2;PMS_P1;PMS_P2;Temp;Humidity;BMP_temperature;BMP_pressure;BME280_temperature;BME280_humidity;BME280_pressure;Samples;Min_cycle;Max_cycle;Signal;HPM_P1;HPM_P2
2022/10/23 00:01:27;;;;;;;27.00;20.10;;;;;;;-144.47;100.00;61586.06;4972147;28;20039;-81
2022/10/23 00:03:55;;;;;;;26.98;20.98;;;;;;;-144.47;100.00;61586.06;4973108;28;20495;-81
2022/10/23 00:06:21;;;;;;;26.95;20.98;;;;;;;-144.47;100.00;61586.06;4972361;28;20046;-81
2022/10/23 00:08:48;;;;;;;28.23;21.85;;;;;;;-144.47;100.00;61586.06;4976786;28;20037;-80
2022/10/23 00:11:17;;;;;;;26.75;19.98;;;;;;;-144.47;100.00;61586.06;4976276;28;20141;-81
2022/10/23 00:13:43;;;;;;;27.75;21.92;;;;;;;-144.47;100.00;61586.06;4977117;28;20041;-80
2022/10/23 00:16:11;;;;;;;26.60;21.38;;;;;;;-144.47;100.00;61586.06;4975947;28;20034;-80
2022/10/23 00:18:38;;;;;;;27.27;22.50;;;;;;;-144.47;100.00;61586.06;4976585;28;20526;-81
2022/10/23 00:21:04;;;;;;;27.10;20.92;;;;;;;-144.47;100.00;61586.06;4963386;28;20046;-78
2022/10/23 00:23:30;;;;;;;26.40;20.92;;;;;;;-144.47;100.00;61586.06;4976767;28;20114;-81
2022/10/23 00:25:55;;;;;;;26.67;22.58;;;;;;;-144.47;100.00;61586.06;4961636;28;20113;-81
2022/10/23 00:28:21;;;;;;;29.33;22.35;;;;;;;-144.47;100.00;61586.06;4955063;28;20031;-82
2022/10/23 00:30:46;;;;;;;26.75;21.40;;;;;;;-144.47;100.00;61586.06;4977763;28;20069;-81
2022/10/23 00:33:13;;;;;;;29.17;21.38;;;;;;;-144.47;100.00;61586.06;4967037;28;20034;-81
2022/10/23 00:35:40;;;;;;;29.98;22.48;;;;;;;-144.47;100.00;61586.06;4972833;28;20034;-82
2022/10/23 00:38:06;;;;;;;29.92;21.90;;;;;;;-144.47;100.00;61586.06;4981733;28;20042;-82
2022/10/23 00:40:32;;;;;;;28.05;22.65;;;;;;;-144.47;100.00;61586.06;4977852;28;20109;-82
2022/10/23 00:42:57;;;;;;;29.88;23.73;;;;;;;-144.47;100.00;61586.06;4977497;28;20514;-80
2022/10/23 00:45:33;;;;;;;33.60;24.98;;;;;;;-144.47;100.00;61586.06;4977179;28;20038;-83
2022/10/23 00:48:02;;;;;;;30.15;22.63;;;;;;;-144.47;100.00;61586.06;4958313;28;20050;-81
2022/10/23 00:50:31;;;;;;;29.10;22.02;;;;;;;-144.47;100.00;61586.06;4976722;28;20042;-82
2022/10/23 00:52:59;;;;;;;26.45;21.63;;;;;;;-144.47;100.00;61586.06;4976749;28;20035;-82
2022/10/23 00:55:25;;;;;;;35.17;23.42;;;;;;;-144.47;100.00;61586.06;4977301;28;20356;-83
2022/10/23 00:57:52;;;;;;;30.48;22.88;;;;;;;-144.47;100.00;61586.06;4974991;28;20035;-83
2022/10/23 01:00:27;;;;;;;30.40;23.77;;;;;;;-144.47;100.00;61586.06;4965923;28;20039;-82
2022/10/23 01:02:54;;;;;;;32.53;24.02;;;;;;;-144.47;100.00;61586.06;4976228;28;20038;-83
2022/10/23 01:05:29;;;;;;;31.58;24.77;;;;;;;-144.47;100.00;61586.06;4975181;28;20034;-82
2022/10/23 01:08:21;;;;;;;28.60;23.67;;;;;;;-144.47;100.00;61586.06;4965030;28;20066;-82
2022/10/23 01:10:53;;;;;;;30.10;22.98;;;;;;;-144.47;100.00;61586.06;4962361;28;20055;-82
2022/10/23 01:13:42;;;;;;;30.70;23.00;;;;;;;-144.47;100.00;61586.06;4975376;28;20031;-81
2022/10/23 01:16:18;;;;;;;30.90;23.92;;;;;;;-144.47;100.00;61586.06;4972638;28;20097;-83
2022/10/23 01:18:56;;;;;;;30.52;24.00;;;;;;;-144.47;100.00;61586.06;4961774;28;20053;-83
2022/10/23 01:21:37;;;;;;;30.58;22.98;;;;;;;-144.47;100.00;61586.06;4975107;28;20019;-83
2022/10/23 01:24:18;;;;;;;28.85;22.77;;;;;;;-144.47;100.00;61586.06;4972587;28;20105;-81
2022/10/23 01:27:16;;;;;;;29.40;22.85;;;;;;;-144.47;100.00;61586.06;4962426;28;20031;-84
2022/10/23 01:29:58;;;;;;;33.75;22.63;;;;;;;-144.47;100.00;61586.06;4975127;28;20514;-83
2022/10/23 01:32:36;;;;;;;28.13;21.83;;;;;;;-144.47;100.00;61586.06;4958735;28;20031;-82
2022/10/23 01:35:28;;;;;;;28.63;20.08;;;;;;;-144.47;100.00;61586.06;4976347;28;20085;-83
2022/10/23 01:38:16;;;;;;;26.38;19.80;;;;;;;-144.47;100.00;61586.06;4962596;28;20049;-81
2022/10/23 01:41:06;;;;;;;21.17;18.33;;;;;;;-144.47;100.00;61586.06;4964478;28;20047;-83
2022/10/23 01:43:40;;;;;;;21.40;18.33;;;;;;;-144.47;100.00;61586.06;4971334;28;20126;-81
2022/10/23 01:46:09;;;;;;;26.58;18.25;;;;;;;-144.47;100.00;61586.06;4962239;28;20031;-81
2022/10/23 01:48:39;;;;;;;26.25;19.30;;;;;;;-144.47;100.00;61586.06;4961343;28;20042;-82
2022/10/23 01:51:08;;;;;;;27.00;19.30;;;;;;;-144.47;100.00;61586.06;4974513;28;20039;-82
2022/10/23 01:53:40;;;;;;;25.95;19.33;;;;;;;-144.47;100.00;61586.06;4961398;28;20038;-82
2022/10/23 01:56:11;;;;;;;27.52;19.80;;;;;;;-144.47;100.00;61586.06;4960316;28;20416;-82
2022/10/23 01:58:41;;;;;;;25.23;19.05;;;;;;;-144.47;100.00;61586.06;4961773;28;20039;-82
2022/10/23 02:01:10;;;;;;;27.88;19.90;;;;;;;-144.47;100.00;61586.06;4963118;28;20567;-83
2022/10/23 02:03:47;;;;;;;30.70;22.17;;;;;;;-144.47;100.00;61586.06;4962258;28;20042;-81
2022/10/23 02:06:12;;;;;;;33.20;22.23;;;;;;;-144.47;100.00;61586.06;4963543;28;20118;-81
2022/10/23 02:08:38;;;;;;;30.00;22.52;;;;;;;-144.47;100.00;61586.06;4961006;28;20130;-81
2022/10/23 02:11:08;;;;;;;30.90;22.23;;;;;;;-144.47;100.00;61586.06;4961379;28;20106;-81
2022/10/23 02:13:54;;;;;;;31.83;22.75;;;;;;;-144.47;100.00;61586.06;4974459;28;20034;-81
2022/10/23 02:16:44;;;;;;;30.65;23.13;;;;;;;-144.47;100.00;61586.06;4974060;28;20043;-82
2022/10/23 02:19:25;;;;;;;33.72;22.80;;;;;;;-144.47;100.00;61586.06;4959275;28;20075;-80
2022/10/23 02:22:10;;;;;;;;;;;;;;;-144.47;100.00;61586.06;4965033;28;20550;-82
2022/10/23 02:25:10;;;;;;;35.88;24.48;;;;;;;-144.47;100.00;61586.06;4957635;28;19917;-83
2022/10/23 02:27:47;;;;;;;29.70;24.10;;;;;;;-144.47;100.00;61586.06;4959360;28;20052;-81
2022/10/23 02:30:18;;;;;;;33.50;24.88;;;;;;;-144.47;100.00;61586.06;4947332;28;20126;-81
2022/10/23 02:32:53;;;;;;;32.83;24.70;;;;;;;-144.47;100.00;61586.06;4974170;28;20113;-83
2022/10/23 02:35:22;;;;;;;40.05;24.75;;;;;;;-144.47;100.00;61586.06;4964309;28;20047;-81
2022/10/23 02:37:56;;;;;;;32.13;24.48;;;;;;;-144.47;100.00;61586.06;4958981;28;20506;-83
2022/10/23 02:40:34;;;;;;;37.83;24.80;;;;;;;-144.47;100.00;61586.06;4953524;28;20030;-83
2022/10/23 02:43:13;;;;;;;33.30;24.65;;;;;;;-144.47;100.00;61586.06;4972928;28;20117;-83
2022/10/23 02:45:50;;;;;;;38.70;25.67;;;;;;;-144.47;100.00;61586.06;4959132;28;20031;-82
2022/10/23 02:48:21;;;;;;;34.78;24.70;;;;;;;-144.47;100.00;61586.06;4973810;28;20161;-84
2022/10/23 02:50:59;;;;;;;31.77;24.63;;;;;;;-144.47;100.00;61586.06;4973638;28;20559;-84
2022/10/23 02:53:59;;;;;;;36.60;26.65;;;;;;;-144.47;100.00;61586.06;4956052;28;20504;-84
2022/10/23 02:56:35;;;;;;;37.28;25.95;;;;;;;-144.47;100.00;61586.06;4956806;28;20465;-82
2022/10/23 02:59:13;;;;;;;33.90;24.55;;;;;;;-144.47;100.00;61586.06;4960689;28;20031;-82
2022/10/23 03:02:12;;;;;;;33.90;26.55;;;;;;;-144.47;100.00;61586.06;4960299;28;20415;-83
2022/10/23 03:04:40;;;;;;;35.05;25.60;;;;;;;-144.47;100.00;61586.06;4943188;28;20057;-82
2022/10/23 03:07:16;;;;;;;37.40;26.15;;;;;;;-144.47;100.00;61586.06;4962507;28;20109;-82
2022/10/23 03:09:42;;;;;;;36.10;26.38;;;;;;;-144.47;100.00;61586.06;4962479;28;20039;-83
2022/10/23 03:12:07;;;;;;;37.83;27.63;;;;;;;-144.47;100.00;61586.06;4963073;28;20519;-82
2022/10/23 03:14:34;;;;;;;39.72;28.02;;;;;;;-144.47;100.00;61586.06;4972394;28;20106;-82
2022/10/23 03:17:01;;;;;;;36.53;27.70;;;;;;;-144.47;100.00;61586.06;4963356;28;20039;-81
2022/10/23 03:19:26;;;;;;;39.40;27.17;;;;;;;-144.47;100.00;61586.06;4963495;28;20105;-81
2022/10/23 03:21:52;;;;;;;36.30;25.55;;;;;;;-144.47;100.00;61586.06;4963598;28;20093;-81
2022/10/23 03:24:19;;;;;;;40.83;28.05;;;;;;;-144.47;100.00;61586.06;4972108;28;20039;-81
2022/10/23 03:26:45;;;;;;;32.15;25.20;;;;;;;-144.47;100.00;61586.06;4963060;28;20118;-81
2022/10/23 03:29:10;;;;;;;40.30;26.55;;;;;;;-144.47;100.00;61586.06;4963379;28;20041;-81
2022/10/23 03:31:41;;;;;;;34.75;24.73;;;;;;;-144.47;100.00;61586.06;4964753;28;20038;-82
2022/10/23 03:34:10;;;;;;;36.80;26.75;;;;;;;-144.47;100.00;61586.06;4972732;28;20043;-83
2022/10/23 03:36:37;;;;;;;35.90;26.80;;;;;;;-144.47;100.00;61586.06;4963452;28;20038;-83
2022/10/23 03:39:03;;;;;;;44.03;27.40;;;;;;;-144.47;100.00;61586.06;4962211;28;20117;-83
2022/10/23 03:41:30;;;;;;;34.83;26.17;;;;;;;-144.47;100.00;61586.06;4962778;28;20122;-83
2022/10/23 03:43:55;;;;;;;36.45;26.85;;;;;;;-144.47;100.00;61586.06;4963271;28;20428;-83
2022/10/23 03:46:21;;;;;;;38.10;26.55;;;;;;;-144.47;100.00;61586.06;4963050;28;20045;-83
2022/10/23 03:48:50;;;;;;;36.45;26.70;;;;;;;-144.47;100.00;61586.06;4963387;28;20387;-82
2022/10/23 03:51:16;;;;;;;38.05;26.17;;;;;;;-144.47;100.00;61586.06;4962825;28;20044;-84
2022/10/23 03:53:42;;;;;;;38.72;26.40;;;;;;;-144.47;100.00;61586.06;4972589;28;20098;-83
2022/10/23 03:56:07;;;;;;;36.92;26.02;;;;;;;-144.47;100.00;61586.06;4971780;28;20126;-81
2022/10/23 03:58:33;;;;;;;37.80;25.23;;;;;;;-144.47;100.00;61586.06;4963036;28;20501;-82
2022/10/23 04:00:58;;;;;;;36.60;26.50;;;;;;;-144.47;100.00;61586.06;4962868;28;20383;-81
2022/10/23 04:03:23;;;;;;;39.58;25.35;;;;;;;-144.47;100.00;61586.06;4972063;28;20030;-82
2022/10/23 04:05:50;;;;;;;37.13;23.38;;;;;;;-144.47;100.00;61586.06;4963105;28;20035;-83
2022/10/23 04:08:15;;;;;;;32.58;24.42;;;;;;;-144.47;100.00;61586.06;4962636;28;20033;-82
2022/10/23 04:10:41;;;;;;;31.10;23.75;;;;;;;-144.47;100.00;61586.06;4971556;28;20039;-80
2022/10/23 04:13:06;;;;;;;29.65;23.45;;;;;;;-144.47;100.00;61586.06;4962677;28;20085;-82
2022/10/23 04:15:34;;;;;;;25.13;20.42;;;;;;;-144.47;100.00;61586.06;4963149;28;20159;-82
2022/10/23 04:18:00;;;;;;;24.35;19.00;;;;;;;-144.47;100.00;61586.06;4963072;28;20119;-83
2022/10/23 04:20:26;;;;;;;24.08;20.27;;;;;;;-144.47;100.00;61586.06;4972254;28;20110;-83
2022/10/23 04:22:51;;;;;;;23.67;19.75;;;;;;;-144.47;100.00;61586.06;4963015;28;20125;-82
2022/10/23 04:25:17;;;;;;;26.40;19.00;;;;;;;-144.47;100.00;61586.06;4971836;28;20098;-83
2022/10/23 04:27:43;;;;;;;25.85;19.98;;;;;;;-144.47;100.00;61586.06;4972148;28;20416;-80
2022/10/23 04:30:10;;;;;;;27.35;20.23;;;;;;;-144.47;100.00;61586.06;4962289;28;20528;-81
2022/10/23 04:32:36;;;;;;;23.80;19.13;;;;;;;-144.47;100.00;61586.06;4963001;28;20064;-83
2022/10/23 04:35:03;;;;;;;25.45;19.67;;;;;;;-144.47;100.00;61586.06;4963519;28;20023;-82
2022/10/23 04:37:29;;;;;;;26.88;20.50;;;;;;;-144.47;100.00;61586.06;4969319;28;20027;-84
2022/10/23 04:39:54;;;;;;;22.77;18.95;;;;;;;-144.47;100.00;61586.06;4971924;28;20058;-85
2022/10/23 04:42:20;;;;;;;27.42;20.58;;;;;;;-144.47;100.00;61586.06;4967309;28;20038;-83
2022/10/23 04:44:46;;;;;;;28.45;21.88;;;;;;;-144.47;100.00;61586.06;4964848;28;20026;-81
2022/10/23 04:47:11;;;;;;;32.20;24.42;;;;;;;-144.47;100.00;61586.06;4960421;28;20030;-84
2022/10/23 04:49:47;;;;;;;34.33;24.25;;;;;;;-144.47;100.00;61586.06;4962302;28;20038;-82
2022/10/23 04:52:31;;;;;;;33.40;22.17;;;;;;;-144.47;100.00;61586.06;4972030;28;20071;-83
2022/10/23 04:55:24;;;;;;;35.42;23.08;;;;;;;-144.47;100.00;61586.06;4971294;28;20487;-83
2022/10/23 04:58:10;;;;;;;31.33;21.85;;;;;;;-144.47;100.00;61586.06;4962463;28;20069;-84
2022/10/23 05:00:36;;;;;;;30.80;23.30;;;;;;;-144.47;100.00;61586.06;4963459;28;20070;-83
2022/10/23 05:03:01;;;;;;;35.97;24.17;;;;;;;-144.47;100.00;61586.06;4960719;28;20119;-83
2022/10/23 05:05:33;;;;;;;28.58;22.20;;;;;;;-144.47;100.00;61586.06;4962636;28;20066;-82
2022/10/23 05:08:03;;;;;;;31.00;23.08;;;;;;;-144.47;100.00;61586.06;4975454;28;20066;-82
2022/10/23 05:10:38;;;;;;;31.42;24.13;;;;;;;-144.47;100.00;61586.06;4975284;28;20130;-81
2022/10/23 05:13:22;;;;;;;34.70;23.65;;;;;;;-144.47;100.00;61586.06;4974881;28;20173;-80
2022/10/23 05:15:50;;;;;;;34.60;23.90;;;;;;;-144.47;100.00;61586.06;4962207;28;20082;-80
2022/10/23 05:18:24;;;;;;;34.40;24.42;;;;;;;-144.47;100.00;61586.06;4963165;28;20082;-80
2022/10/23 05:20:55;;;;;;;32.65;24.60;;;;;;;-144.47;100.00;61586.06;4975499;28;20117;-80
2022/10/23 05:23:23;;;;;;;38.67;25.55;;;;;;;-144.47;100.00;61586.06;4975058;28;20546;-80
2022/10/23 05:25:56;;;;;;;33.55;24.55;;;;;;;-144.47;100.00;61586.06;4965291;28;20027;-82
2022/10/23 05:28:21;;;;;;;34.05;25.48;;;;;;;-144.47;100.00;61586.06;4974758;28;20043;-82
2022/10/23 05:30:47;;;;;;;35.03;26.10;;;;;;;-144.47;100.00;61586.06;4959620;28;20050;-83
2022/10/23 05:33:15;;;;;;;32.45;24.40;;;;;;;-144.47;100.00;61586.06;4964258;28;20057;-83
2022/10/23 05:35:43;;;;;;;32.28;24.55;;;;;;;-144.47;100.00;61586.06;4964587;28;20031;-84
2022/10/23 05:38:10;;;;;;;37.35;25.08;;;;;;;-144.47;100.00;61586.06;4962989;28;20027;-82
2022/10/23 05:40:36;;;;;;;28.35;22.27;;;;;;;-144.47;100.00;61586.06;4963815;28;20178;-84
2022/10/23 05:43:06;;;;;;;29.67;22.17;;;;;;;-144.47;100.00;61586.06;4942451;28;20042;-83
2022/10/23 05:45:54;;;;;;;26.65;20.50;;;;;;;-144.47;100.00;61586.06;4966311;28;20031;-84
2022/10/23 05:48:42;;;;;;;30.30;21.15;;;;;;;-144.47;100.00;61586.06;4973862;28;20043;-81
2022/10/23 05:51:34;;;;;;;33.17;23.88;;;;;;;-144.47;100.00;61586.06;4971934;28;20054;-83
2022/10/23 05:54:07;;;;;;;30.23;23.08;;;;;;;-144.47;100.00;61586.06;4946908;28;20182;-83
2022/10/23 05:56:43;;;;;;;30.27;22.98;;;;;;;-144.47;100.00;61586.06;4974902;28;20387;-83
2022/10/23 05:59:27;;;;;;;30.70;22.88;;;;;;;-144.47;100.00;61586.06;4959714;28;20655;-83
2022/10/23 06:02:10;;;;;;;27.13;21.25;;;;;;;-144.47;100.00;61586.06;4957973;28;20118;-83
2022/10/23 06:04:47;;;;;;;31.55;22.77;;;;;;;-144.47;100.00;61586.06;4963307;28;20075;-82
2022/10/23 06:07:28;;;;;;;26.55;21.70;;;;;;;-144.47;100.00;61586.06;4963062;28;20467;-83
2022/10/23 06:09:55;;;;;;;32.45;23.38;;;;;;;-144.47;100.00;61586.06;4952556;28;20567;-82
2022/10/23 06:12:21;;;;;;;31.45;21.63;;;;;;;-144.47;100.00;61586.06;4956340;28;20173;-83
2022/10/23 06:14:49;;;;;;;31.50;22.88;;;;;;;-144.47;100.00;61586.06;4956852;28;20023;-82
2022/10/23 06:17:14;;;;;;;33.60;23.25;;;;;;;-144.47;100.00;61586.06;4956053;28;20030;-83
2022/10/23 06:19:44;;;;;;;32.75;23.45;;;;;;;-144.47;100.00;61586.06;4956416;28;20026;-81
2022/10/23 06:22:10;;;;;;;33.72;23.70;;;;;;;-144.47;100.00;61586.06;4956082;28;20046;-81
2022/10/23 06:24:45;;;;;;;33.35;23.48;;;;;;;-144.47;100.00;61586.06;4947336;28;20441;-82
2022/10/23 06:27:13;;;;;;;36.65;23.67;;;;;;;-144.47;100.00;61586.06;4956036;28;20506;-83
2022/10/23 06:29:43;;;;;;;30.45;23.77;;;;;;;-144.47;100.00;61586.06;4955360;28;20121;-82
2022/10/23 06:32:08;;;;;;;34.28;25.63;;;;;;;-144.47;100.00;61586.06;4955877;28;20142;-85
2022/10/23 06:34:35;;;;;;;37.53;24.85;;;;;;;-144.47;100.00;61586.06;4956368;28;20043;-80
2022/10/23 06:37:01;;;;;;;33.58;23.85;;;;;;;-144.47;100.00;61586.06;4956204;28;20038;-80
2022/10/23 06:39:39;;;;;;;37.00;23.85;;;;;;;-144.47;100.00;61586.06;4957463;28;20027;-80
2022/10/23 06:42:07;;;;;;;31.50;23.13;;;;;;;-144.47;100.00;61586.06;4974138;28;20051;-82
2022/10/23 06:44:51;;;;;;;33.30;23.92;;;;;;;-144.47;100.00;61586.06;4974333;28;20073;-82
2022/10/23 06:47:33;;;;;;;34.55;24.60;;;;;;;-144.47;100.00;61586.06;4954756;28;20034;-81
2022/10/23 06:50:19;;;;;;;38.10;26.25;;;;;;;-144.47;100.00;61586.06;4931866;28;20158;-80
2022/10/23 06:52:45;;;;;;;36.17;24.52;;;;;;;-144.47;100.00;61586.06;4964633;28;20041;-88
2022/10/23 06:55:13;;;;;;;36.67;24.73;;;;;;;-144.47;100.00;61586.06;4958715;28;20038;-88
2022/10/23 06:57:39;;;;;;;31.67;24.25;;;;;;;-144.47;100.00;61586.06;4957712;28;20027;-89
2022/10/23 07:00:05;;;;;;;34.20;24.17;;;;;;;-144.47;100.00;61586.06;4955572;28;20023;-90
2022/10/23 07:02:40;;;;;;;35.63;24.65;;;;;;;-144.47;100.00;61586.06;4955788;28;20439;-90
2022/10/23 07:05:07;;;;;;;33.97;23.95;;;;;;;-144.47;100.00;61586.06;4955419;28;20027;-86
2022/10/23 07:07:33;;;;;;;35.70;25.00;;;;;;;-144.47;100.00;61586.06;4968890;28;20109;-89
2022/10/23 07:09:58;;;;;;;36.20;24.65;;;;;;;-144.47;100.00;61586.06;4959642;28;20031;-92
2022/10/23 07:12:38;;;;;;;32.35;23.88;;;;;;;-144.47;100.00;61586.06;4955236;28;20394;-88
2022/10/23 07:15:39;;;;;;;;;;;;;;;-144.47;100.00;61586.06;4948647;28;20045;-80
2022/10/23 07:18:13;;;;;;;36.03;23.92;;;;;;;-144.47;100.00;61586.06;4942633;28;19922;-82
2022/10/23 07:21:11;;;;;;;32.70;24.02;;;;;;;-144.47;100.00;61586.06;4950093;28;20077;-82
2022/10/23 07:23:38;;;;;;;36.30;24.92;;;;;;;-144.47;100.00;61586.06;4959104;28;20141;-80
2022/10/23 07:26:07;;;;;;;31.38;21.42;;;;;;;-144.47;100.00;61586.06;4954035;28;20514;-82
2022/10/23 07:28:33;;;;;;;31.75;22.33;;;;;;;-144.47;100.00;61586.06;4961988;28;20065;-84
2022/10/23 07:30:59;;;;;;;30.33;21.38;;;;;;;-144.47;100.00;61586.06;4962513;28;20070;-84
2022/10/23 07:33:35;;;;;;;29.42;21.23;;;;;;;-144.47;100.00;61586.06;4951118;28;20054;-79
2022/10/23 07:36:12;;;;;;;26.63;21.50;;;;;;;-144.47;100.00;61586.06;4951533;28;20031;-81
2022/10/23 07:38:38;;;;;;;29.42;21.88;;;;;;;-144.47;100.00;61586.06;4962521;28;20531;-82
2022/10/23 07:41:04;;;;;;;28.05;22.00;;;;;;;-144.47;100.00;61586.06;4961283;28;20117;-84
2022/10/23 07:43:30;;;;;;;32.55;21.58;;;;;;;-144.47;100.00;61586.06;4960309;28;20058;-82
2022/10/23 07:45:55;;;;;;;27.80;21.70;;;;;;;-144.47;100.00;61586.06;4960277;28;20038;-84
2022/10/23 07:48:30;;;;;;;35.03;21.70;;;;;;;-144.47;100.00;61586.06;4953398;28;20038;-80
2022/10/23 07:51:01;;;;;;;31.08;23.48;;;;;;;-144.47;100.00;61586.06;4956723;28;20528;-80
2022/10/23 07:53:29;;;;;;;35.58;22.88;;;;;;;-144.47;100.00;61586.06;4958851;28;20484;-82
2022/10/23 07:56:11;;;;;;;29.48;22.25;;;;;;;-144.47;100.00;61586.06;4941551;28;20511;-84
2022/10/23 07:58:57;;;;;;;32.20;22.15;;;;;;;-144.47;100.00;61586.06;4969819;28;20047;-83
2022/10/23 08:01:35;;;;;;;32.47;23.90;;;;;;;-144.47;100.00;61586.06;4955915;28;20029;-83
2022/10/23 08:04:03;;;;;;;29.67;21.38;;;;;;;-144.47;100.00;61586.06;4956797;28;20033;-82
2022/10/23 08:06:29;;;;;;;33.75;22.17;;;;;;;-144.47;100.00;61586.06;4956104;28;20034;-82
2022/10/23 08:08:56;;;;;;;31.80;20.80;;;;;;;-144.47;100.00;61586.06;4960845;28;20026;-81
2022/10/23 08:11:26;;;;;;;33.70;21.63;;;;;;;-144.47;100.00;61586.06;4948597;28;20058;-82
2022/10/23 08:13:53;;;;;;;30.13;22.58;;;;;;;-144.47;100.00;61586.06;4960055;28;20046;-82
2022/10/23 08:16:20;;;;;;;32.28;21.90;;;;;;;-144.47;100.00;61586.06;4972940;28;20039;-83
2022/10/23 08:19:07;;;;;;;31.15;21.45;;;;;;;-144.47;100.00;61586.06;4969552;28;20190;-83
2022/10/23 08:21:34;;;;;;;28.63;20.92;;;;;;;-144.47;100.00;61586.06;4960679;28;20043;-82
2022/10/23 08:24:01;;;;;;;35.45;21.25;;;;;;;-144.47;100.00;61586.06;4959225;28;20038;-80
2022/10/23 08:26:30;;;;;;;30.80;22.33;;;;;;;-144.47;100.00;61586.06;4949261;28;20031;-82
2022/10/23 08:28:59;;;;;;;27.38;20.73;;;;;;;-144.47;100.00;61586.06;4968278;28;20034;-82
2022/10/23 08:31:26;;;;;;;31.37;21.53;;;;;;;-144.47;100.00;61586.06;4959423;28;20037;-81
2022/10/23 08:34:08;;;;;;;29.48;21.77;;;;;;;-144.47;100.00;61586.06;4958798;28;20046;-83
2022/10/23 08:36:35;;;;;;;28.48;21.42;;;;;;;-144.47;100.00;61586.06;4956929;28;20035;-84
2022/10/23 08:39:02;;;;;;;28.05;20.83;;;;;;;-144.47;100.00;61586.06;4939913;28;20222;-85
2022/10/23 08:41:34;;;;;;;33.47;24.13;;;;;;;-144.47;100.00;61586.06;4959686;28;20042;-85
2022/10/23 08:44:33;;;;;;;29.08;21.30;;;;;;;-144.47;100.00;61586.06;4964795;28;20199;-83
2022/10/23 08:47:04;;;;;;;31.40;21.55;;;;;;;-144.47;100.00;61586.06;4976736;28;20031;-81
2022/10/23 08:49:45;;;;;;;32.17;22.67;;;;;;;-144.47;100.00;61586.06;4959804;28;20038;-78
2022/10/23 08:52:34;;;;;;;29.35;21.70;;;;;;;-144.47;100.00;61586.06;4954137;28;20097;-79
2022/10/23 08:55:23;;;;;;;30.15;21.42;;;;;;;-144.47;100.00;61586.06;4906038;28;20078;-80
2022/10/23 08:58:16;;;;;;;27.83;21.42;;;;;;;-144.47;100.00;61586.06;4974758;28;20066;-82
2022/10/23 09:00:43;;;;;;;33.25;22.75;;;;;;;-144.47;100.00;61586.06;4974905;28;20049;-86
2022/10/23 09:03:11;;;;;;;33.90;23.25;;;;;;;-144.47;100.00;61586.06;4976949;28;20051;-87
2022/10/23 09:06:07;;;;;;;34.80;23.52;;;;;;;-144.47;100.00;61586.06;4974482;28;20031;-87
2022/10/23 09:08:41;;;;;;;29.23;21.98;;;;;;;-144.47;100.00;61586.06;4969464;28;20048;-87
2022/10/23 09:11:22;;;;;;;35.20;22.98;;;;;;;-144.47;100.00;61586.06;4976944;28;20475;-91
2022/10/23 09:13:57;;;;;;;29.30;21.85;;;;;;;-144.47;100.00;61586.06;4966135;28;20038;-82
2022/10/23 09:16:39;;;;;;;34.13;23.70;;;;;;;-144.47;100.00;61586.06;4976086;28;20372;-80
2022/10/23 09:19:13;;;;;;;31.25;23.40;;;;;;;-144.47;100.00;61586.06;4958828;28;20138;-85
2022/10/23 09:21:39;;;;;;;33.03;25.00;;;;;;;-144.47;100.00;61586.06;4976265;28;20039;-85
2022/10/23 09:24:10;;;;;;;32.97;24.45;;;;;;;-144.47;100.00;61586.06;4975739;28;20145;-83
2022/10/23 09:26:35;;;;;;;36.25;25.17;;;;;;;-144.47;100.00;61586.06;4975955;28;20031;-81
2022/10/23 09:29:16;;;;;;;31.50;24.73;;;;;;;-144.47;100.00;61586.06;4965718;28;20061;-80
2022/10/23 09:32:08;;;;;;;32.40;24.05;;;;;;;-144.47;100.00;61586.06;4966274;28;20031;-84
2022/10/23 09:34:34;;;;;;;40.08;25.80;;;;;;;-144.47;100.00;61586.06;4948821;28;20405;-82
2022/10/23 09:37:19;;;;;;;37.90;26.42;;;;;;;-144.47;100.00;61586.06;4975732;28;20031;-85
2022/10/23 09:39:45;;;;;;;40.20;25.77;;;;;;;-144.47;100.00;61586.06;4965671;28;20066;-88
2022/10/23 09:42:23;;;;;;;35.08;24.55;;;;;;;-144.47;100.00;61586.06;4966776;28;20163;-86
2022/10/23 09:44:51;;;;;;;34.55;25.73;;;;;;;-144.47;100.00;61586.06;4976394;28;20042;-85
2022/10/23 09:47:21;;;;;;;38.13;25.85;;;;;;;-144.47;100.00;61586.06;4958079;28;20038;-87
2022/10/23 09:49:56;;;;;;;38.00;25.30;;;;;;;-144.47;100.00;61586.06;4955290;28;20039;-87
2022/10/23 09:52:29;;;;;;;38.25;26.10;;;;;;;-144.47;100.00;61586.06;4950066;28;20031;-86
2022/10/23 09:55:17;;;;;;;37.53;27.35;;;;;;;-144.47;100.00;61586.06;4961644;28;20035;-88
2022/10/23 09:57:44;;;;;;;38.78;26.45;;;;;;;-144.47;100.00;61586.06;4965672;28;20047;-85
2022/10/23 10:00:17;;;;;;;37.25;25.98;;;;;;;-144.47;100.00;61586.06;4963247;28;20054;-84
2022/10/23 10:03:04;;;;;;;37.30;27.23;;;;;;;-144.47;100.00;61586.06;4975421;28;20035;-87
2022/10/23 10:05:40;;;;;;;34.35;25.55;;;;;;;-144.47;100.00;61586.06;4960977;28;20027;-89
2022/10/23 10:08:21;;;;;;;36.22;26.35;;;;;;;-144.47;100.00;61586.06;4944517;28;20031;-87
2022/10/23 10:10:52;;;;;;;41.03;25.13;;;;;;;-144.47;100.00;61586.06;4975262;28;20046;-86
2022/10/23 10:13:35;;;;;;;41.03;27.42;;;;;;;-144.47;100.00;61586.06;4960456;28;20093;-83
2022/10/23 10:16:20;;;;;;;44.40;26.83;;;;;;;-144.47;100.00;61586.06;4971684;28;20038;-84
2022/10/23 10:18:57;;;;;;;42.65;26.35;;;;;;;-144.47;100.00;61586.06;4974173;28;20542;-84
2022/10/23 10:22:00;;;;;;;42.30;26.75;;;;;;;-144.47;100.00;61586.06;4946695;28;20047;-84
2022/10/23 10:24:35;;;;;;;38.08;26.45;;;;;;;-144.47;100.00;61586.06;4970509;28;20049;-84
2022/10/23 10:27:19;;;;;;;37.33;26.65;;;;;;;-144.47;100.00;61586.06;4971991;28;20054;-86
2022/10/23 10:30:12;;;;;;;38.22;27.48;;;;;;;-144.47;100.00;61586.06;4973373;28;20109;-84
2022/10/23 10:32:56;;;;;;;38.30;25.85;;;;;;;-144.47;100.00;61586.06;4958525;28;20037;-85
2022/10/23 10:35:27;;;;;;;38.25;27.00;;;;;;;-144.47;100.00;61586.06;4973416;28;20134;-84
2022/10/23 10:38:28;;;;;;;41.85;27.20;;;;;;;-144.47;100.00;61586.06;4952641;28;20041;-85
2022/10/23 10:41:23;;;;;;;40.53;25.92;;;;;;;-144.47;100.00;61586.06;4969820;28;20030;-84
2022/10/23 10:44:17;;;;;;;43.30;28.73;;;;;;;-144.47;100.00;61586.06;4969087;28;20506;-84
2022/10/23 10:46:50;;;;;;;43.15;28.00;;;;;;;-144.47;100.00;61586.06;4972283;28;20158;-85
2022/10/23 10:49:25;;;;;;;35.75;25.55;;;;;;;-144.47;100.00;61586.06;4959454;28;20053;-85
2022/10/23 10:52:16;;;;;;;41.40;27.63;;;;;;;-144.47;100.00;61586.06;4959627;28;20038;-84
2022/10/23 10:54:58;;;;;;;42.65;28.35;;;;;;;-144.47;100.00;61586.06;4961323;28;20050;-85
2022/10/23 10:57:33;;;;;;;41.92;28.00;;;;;;;-144.47;100.00;61586.06;4968804;28;20105;-85
2022/10/23 11:00:14;;;;;;;41.90;28.23;;;;;;;-144.47;100.00;61586.06;4969830;28;20042;-85
2022/10/23 11:03:01;;;;;;;41.45;27.90;;;;;;;-144.47;100.00;61586.06;4974427;28;20035;-85
2022/10/23 11:05:41;;;;;;;42.90;28.90;;;;;;;-144.47;100.00;61586.06;4957948;28;20035;-86
2022/10/23 11:08:42;;;;;;;40.17;27.23;;;;;;;-144.47;100.00;61586.06;4970695;28;20034;-85
2022/10/23 11:11:17;;;;;;;42.33;28.67;;;;;;;-144.47;100.00;61586.06;4924826;28;20077;-85
2022/10/23 11:13:44;;;;;;;41.20;28.52;;;;;;;-144.47;100.00;61586.06;4972667;28;20086;-85
2022/10/23 11:16:18;;;;;;;46.03;29.95;;;;;;;-144.47;100.00;61586.06;4972344;28;20042;-85
2022/10/23 11:18:53;;;;;;;46.60;29.45;;;;;;;-144.47;100.00;61586.06;4972812;28;20045;-85
2022/10/23 11:21:57;;;;;;;44.25;29.20;;;;;;;-144.47;100.00;61586.06;4972836;28;20468;-85
2022/10/23 11:24:47;;;;;;;44.53;29.40;;;;;;;-144.47;100.00;61586.06;4877657;29;20554;-84